sensor_id;sensor_type;location;lat;lon;timestamp;temperature;humidity
1329;DHT22;658;48.820;9.354;2023-11-19T00:03:20;22.50;44.80
1329;DHT22;658;48.820;9.354;2023-11-19T00:07:21;22.60;44.90
1329;DHT22;658;48.820;9.354;2023-11-19T00:11:21;22.50;44.90
1329;DHT22;658;48.820;9.354;2023-11-19T00:15:22;22.50;44.90
1329;DHT22;658;48.820;9.354;2023-11-19T00:19:24;22.50;44.90
1329;DHT22;658;48.820;9.354;2023-11-19T00:23:25;22.60;45.00
1329;DHT22;658;48.820;9.354;2023-11-19T00:27:25;22.60;45.00
1329;DHT22;658;48.820;9.354;2023-11-19T00:31:26;22.50;44.90
1329;DHT22;658;48.820;9.354;2023-11-19T00:35:28;22.50;44.90
1329;DHT22;658;48.820;9.354;2023-11-19T00:39:28;22.50;44.90
1329;DHT22;658;48.820;9.354;2023-11-19T00:43:29;22.50;44.90
1329;DHT22;658;48.820;9.354;2023-11-19T00:47:29;22.50;45.10
1329;DHT22;658;48.820;9.354;2023-11-19T00:51:31;22.50;45.60
1329;DHT22;658;48.820;9.354;2023-11-19T00:55:32;22.50;45.10
1329;DHT22;658;48.820;9.354;2023-11-19T00:59:35;22.50;45.10
1329;DHT22;658;48.820;9.354;2023-11-19T01:03:35;22.50;45.10
1329;DHT22;658;48.820;9.354;2023-11-19T01:07:36;22.50;45.10
1329;DHT22;658;48.820;9.354;2023-11-19T01:11:37;22.50;45.10
1329;DHT22;658;48.820;9.354;2023-11-19T01:15:37;22.50;45.10
1329;DHT22;658;48.820;9.354;2023-11-19T01:19:40;22.50;45.20
1329;DHT22;658;48.820;9.354;2023-11-19T01:23:43;22.50;45.20
1329;DHT22;658;48.820;9.354;2023-11-19T01:27:46;22.50;45.20
1329;DHT22;658;48.820;9.354;2023-11-19T01:31:47;22.60;45.30
1329;DHT22;658;48.820;9.354;2023-11-19T01:35:51;22.50;45.20
1329;DHT22;658;48.820;9.354;2023-11-19T01:39:52;22.60;45.30
1329;DHT22;658;48.820;9.354;2023-11-19T01:43:52;22.60;45.40
1329;DHT22;658;48.820;9.354;2023-11-19T01:47:55;22.60;45.40
1329;DHT22;658;48.820;9.354;2023-11-19T01:51:57;22.60;45.40
1329;DHT22;658;48.820;9.354;2023-11-19T01:55:58;22.60;45.40
1329;DHT22;658;48.820;9.354;2023-11-19T01:59:59;22.60;45.40
1329;DHT22;658;48.820;9.354;2023-11-19T02:04:02;22.60;45.40
1329;DHT22;658;48.820;9.354;2023-11-19T02:08:03;22.60;45.50
1329;DHT22;658;48.820;9.354;2023-11-19T02:12:04;22.60;45.50
1329;DHT22;658;48.820;9.354;2023-11-19T02:16:05;22.60;45.50
1329;DHT22;658;48.820;9.354;2023-11-19T02:20:07;22.60;45.50
1329;DHT22;658;48.820;9.354;2023-11-19T02:24:10;22.60;45.60
1329;DHT22;658;48.820;9.354;2023-11-19T02:28:13;22.60;45.60
1329;DHT22;658;48.820;9.354;2023-11-19T02:32:15;22.60;45.60
1329;DHT22;658;48.820;9.354;2023-11-19T02:36:18;22.60;45.60
1329;DHT22;658;48.820;9.354;2023-11-19T02:40:19;22.60;45.60
1329;DHT22;658;48.820;9.354;2023-11-19T02:44:19;22.60;45.60
1329;DHT22;658;48.820;9.354;2023-11-19T02:48:20;22.60;45.70
1329;DHT22;658;48.820;9.354;2023-11-19T02:52:22;22.60;45.70
1329;DHT22;658;48.820;9.354;2023-11-19T02:56:23;22.60;45.70
1329;DHT22;658;48.820;9.354;2023-11-19T03:00:27;22.60;45.80
1329;DHT22;658;48.820;9.354;2023-11-19T03:04:37;22.60;45.80
1329;DHT22;658;48.820;9.354;2023-11-19T03:08:40;22.60;45.80
1329;DHT22;658;48.820;9.354;2023-11-19T03:12:43;22.60;45.90
1329;DHT22;658;48.820;9.354;2023-11-19T03:16:46;22.60;45.90
1329;DHT22;658;48.820;9.354;2023-11-19T03:20:49;22.60;45.90
1329;DHT22;658;48.820;9.354;2023-11-19T03:24:53;22.60;45.90
1329;DHT22;658;48.820;9.354;2023-11-19T03:28:56;22.60;45.90
1329;DHT22;658;48.820;9.354;2023-11-19T03:32:59;22.60;46.00
1329;DHT22;658;48.820;9.354;2023-11-19T03:37:03;22.60;46.00
1329;DHT22;658;48.820;9.354;2023-11-19T03:41:13;22.60;46.60
1329;DHT22;658;48.820;9.354;2023-11-19T03:45:14;22.50;46.00
1329;DHT22;658;48.820;9.354;2023-11-19T03:49:16;22.60;46.10
1329;DHT22;658;48.820;9.354;2023-11-19T03:53:16;22.60;46.10
1329;DHT22;658;48.820;9.354;2023-11-19T03:57:19;22.50;46.00
1329;DHT22;658;48.820;9.354;2023-11-19T04:01:19;22.50;46.00
1329;DHT22;658;48.820;9.354;2023-11-19T04:05:22;22.60;46.10
1329;DHT22;658;48.820;9.354;2023-11-19T04:09:23;22.50;46.10
1329;DHT22;658;48.820;9.354;2023-11-19T04:13:23;22.50;46.10
1329;DHT22;658;48.820;9.354;2023-11-19T04:17:24;22.50;46.10
1329;DHT22;658;48.820;9.354;2023-11-19T04:21:25;22.60;46.30
1329;DHT22;658;48.820;9.354;2023-11-19T04:25:28;22.50;46.20
1329;DHT22;658;48.820;9.354;2023-11-19T04:29:30;22.50;46.20
1329;DHT22;658;48.820;9.354;2023-11-19T04:33:34;22.50;46.20
1329;DHT22;658;48.820;9.354;2023-11-19T04:37:35;22.50;46.30
1329;DHT22;658;48.820;9.354;2023-11-19T04:41:36;22.50;46.30
1329;DHT22;658;48.820;9.354;2023-11-19T04:45:37;22.50;46.30
1329;DHT22;658;48.820;9.354;2023-11-19T04:49:41;22.50;46.40
1329;DHT22;658;48.820;9.354;2023-11-19T04:53:45;22.50;46.40
1329;DHT22;658;48.820;9.354;2023-11-19T04:57:48;22.50;46.40
1329;DHT22;658;48.820;9.354;2023-11-19T05:01:48;22.50;46.40
1329;DHT22;658;48.820;9.354;2023-11-19T05:05:49;22.50;46.40
1329;DHT22;658;48.820;9.354;2023-11-19T05:09:49;22.50;46.50
1329;DHT22;658;48.820;9.354;2023-11-19T05:13:50;22.50;46.50
1329;DHT22;658;48.820;9.354;2023-11-19T05:17:51;22.50;46.50
1329;DHT22;658;48.820;9.354;2023-11-19T05:21:54;22.50;46.60
1329;DHT22;658;48.820;9.354;2023-11-19T05:25:54;22.50;46.60
1329;DHT22;658;48.820;9.354;2023-11-19T05:29:55;22.50;46.70
1329;DHT22;658;48.820;9.354;2023-11-19T05:33:56;22.50;46.70
1329;DHT22;658;48.820;9.354;2023-11-19T05:37:56;22.40;46.60
1329;DHT22;658;48.820;9.354;2023-11-19T05:41:57;22.50;46.70
1329;DHT22;658;48.820;9.354;2023-11-19T05:45:57;22.50;46.80
1329;DHT22;658;48.820;9.354;2023-11-19T05:49:58;22.50;46.80
1329;DHT22;658;48.820;9.354;2023-11-19T05:53:58;22.40;46.70
1329;DHT22;658;48.820;9.354;2023-11-19T05:57:59;22.50;46.90
1329;DHT22;658;48.820;9.354;2023-11-19T06:02:00;22.50;46.90
1329;DHT22;658;48.820;9.354;2023-11-19T06:06:01;22.50;46.90
1329;DHT22;658;48.820;9.354;2023-11-19T06:10:02;22.40;46.80
1329;DHT22;658;48.820;9.354;2023-11-19T06:14:03;22.50;47.00
1329;DHT22;658;48.820;9.354;2023-11-19T06:18:05;22.40;47.00
1329;DHT22;658;48.820;9.354;2023-11-19T06:22:06;22.50;47.00
1329;DHT22;658;48.820;9.354;2023-11-19T06:26:07;22.40;46.90
1329;DHT22;658;48.820;9.354;2023-11-19T06:30:08;22.50;47.00
1329;DHT22;658;48.820;9.354;2023-11-19T06:34:09;22.50;47.00
1329;DHT22;658;48.820;9.354;2023-11-19T06:38:10;22.50;47.10
1329;DHT22;658;48.820;9.354;2023-11-19T06:42:10;22.50;47.10
1329;DHT22;658;48.820;9.354;2023-11-19T06:46:15;22.50;47.10
1329;DHT22;658;48.820;9.354;2023-11-19T06:50:18;22.60;47.20
1329;DHT22;658;48.820;9.354;2023-11-19T06:54:19;22.60;47.10
1329;DHT22;658;48.820;9.354;2023-11-19T06:58:20;22.60;47.20
1329;DHT22;658;48.820;9.354;2023-11-19T07:02:20;22.60;47.10
1329;DHT22;658;48.820;9.354;2023-11-19T07:06:23;22.60;47.10
1329;DHT22;658;48.820;9.354;2023-11-19T07:10:26;22.60;47.10
1329;DHT22;658;48.820;9.354;2023-11-19T07:14:27;22.60;47.10
1329;DHT22;658;48.820;9.354;2023-11-19T07:18:29;22.60;47.10
1329;DHT22;658;48.820;9.354;2023-11-19T07:22:29;22.70;47.30
1329;DHT22;658;48.820;9.354;2023-11-19T07:26:32;22.70;47.20
1329;DHT22;658;48.820;9.354;2023-11-19T07:30:33;22.70;47.20
1329;DHT22;658;48.820;9.354;2023-11-19T07:34:34;22.70;47.20
1329;DHT22;658;48.820;9.354;2023-11-19T07:38:34;22.70;47.30
1329;DHT22;658;48.820;9.354;2023-11-19T07:42:35;22.70;47.20
1329;DHT22;658;48.820;9.354;2023-11-19T07:46:36;22.70;47.20
1329;DHT22;658;48.820;9.354;2023-11-19T07:50:37;22.70;47.20
1329;DHT22;658;48.820;9.354;2023-11-19T07:54:38;22.70;47.20
1329;DHT22;658;48.820;9.354;2023-11-19T07:58:38;22.70;47.30
1329;DHT22;658;48.820;9.354;2023-11-19T08:02:39;22.70;47.20
1329;DHT22;658;48.820;9.354;2023-11-19T08:06:42;22.70;47.20
1329;DHT22;658;48.820;9.354;2023-11-19T08:10:43;22.70;47.20
1329;DHT22;658;48.820;9.354;2023-11-19T08:14:44;22.70;47.20
1329;DHT22;658;48.820;9.354;2023-11-19T08:18:45;22.80;47.30
1329;DHT22;658;48.820;9.354;2023-11-19T08:22:46;22.80;47.30
1329;DHT22;658;48.820;9.354;2023-11-19T08:26:46;22.80;47.30
1329;DHT22;658;48.820;9.354;2023-11-19T08:30:47;22.80;47.30
1329;DHT22;658;48.820;9.354;2023-11-19T08:34:47;22.80;47.30
1329;DHT22;658;48.820;9.354;2023-11-19T08:38:48;22.80;47.30
1329;DHT22;658;48.820;9.354;2023-11-19T08:42:48;22.80;47.30
1329;DHT22;658;48.820;9.354;2023-11-19T08:46:49;22.80;47.30
1329;DHT22;658;48.820;9.354;2023-11-19T08:50:50;22.80;47.30
1329;DHT22;658;48.820;9.354;2023-11-19T08:54:51;22.80;47.30
1329;DHT22;658;48.820;9.354;2023-11-19T08:58:56;22.80;47.30
1329;DHT22;658;48.820;9.354;2023-11-19T09:02:56;22.80;47.20
1329;DHT22;658;48.820;9.354;2023-11-19T09:06:58;22.80;47.30
1329;DHT22;658;48.820;9.354;2023-11-19T09:10:59;22.80;47.30
1329;DHT22;658;48.820;9.354;2023-11-19T09:15:00;22.80;47.30
1329;DHT22;658;48.820;9.354;2023-11-19T09:19:01;22.80;47.30
1329;DHT22;658;48.820;9.354;2023-11-19T09:23:05;22.80;47.30
1329;DHT22;658;48.820;9.354;2023-11-19T09:27:06;22.80;47.30
1329;DHT22;658;48.820;9.354;2023-11-19T09:31:16;22.80;47.40
1329;DHT22;658;48.820;9.354;2023-11-19T09:35:17;22.80;47.40
1329;DHT22;658;48.820;9.354;2023-11-19T09:39:17;22.80;47.50
1329;DHT22;658;48.820;9.354;2023-11-19T09:43:18;22.90;47.50
1329;DHT22;658;48.820;9.354;2023-11-19T09:47:19;22.90;48.20
1329;DHT22;658;48.820;9.354;2023-11-19T09:51:21;22.90;47.60
1329;DHT22;658;48.820;9.354;2023-11-19T09:55:25;22.90;47.60
1329;DHT22;658;48.820;9.354;2023-11-19T09:59:26;22.90;47.60
1329;DHT22;658;48.820;9.354;2023-11-19T10:03:27;22.90;47.50
1329;DHT22;658;48.820;9.354;2023-11-19T10:07:28;22.90;47.40
1329;DHT22;658;48.820;9.354;2023-11-19T10:11:31;23.00;47.50
1329;DHT22;658;48.820;9.354;2023-11-19T10:15:36;23.00;47.50
1329;DHT22;658;48.820;9.354;2023-11-19T10:19:40;23.00;47.50
1329;DHT22;658;48.820;9.354;2023-11-19T10:23:52;23.00;47.40
1329;DHT22;658;48.820;9.354;2023-11-19T10:27:55;23.10;47.40
1329;DHT22;658;48.820;9.354;2023-11-19T10:31:56;23.20;47.60
1329;DHT22;658;48.820;9.354;2023-11-19T10:35:58;23.00;49.70
1329;DHT22;658;48.820;9.354;2023-11-19T10:39:58;22.70;50.70
1329;DHT22;658;48.820;9.354;2023-11-19T10:43:59;22.80;50.20
1329;DHT22;658;48.820;9.354;2023-11-19T10:48:03;22.90;49.90
1329;DHT22;658;48.820;9.354;2023-11-19T10:52:09;23.00;49.60
1329;DHT22;658;48.820;9.354;2023-11-19T10:56:13;23.00;49.40
1329;DHT22;658;48.820;9.354;2023-11-19T11:00:20;23.10;49.10
1329;DHT22;658;48.820;9.354;2023-11-19T11:04:25;23.20;48.80
1329;DHT22;658;48.820;9.354;2023-11-19T11:08:30;23.30;48.70
1329;DHT22;658;48.820;9.354;2023-11-19T11:12:31;23.30;48.50
1329;DHT22;658;48.820;9.354;2023-11-19T11:16:37;23.40;48.40
1329;DHT22;658;48.820;9.354;2023-11-19T11:20:43;23.40;48.30
1329;DHT22;658;48.820;9.354;2023-11-19T11:25:09;23.40;48.20
1329;DHT22;658;48.820;9.354;2023-11-19T11:37:53;23.40;48.30
1329;DHT22;658;48.820;9.354;2023-11-19T11:42:36;23.20;48.20
1329;DHT22;658;48.820;9.354;2023-11-19T11:50:49;23.00;48.80
1329;DHT22;658;48.820;9.354;2023-11-19T11:54:52;23.20;48.50
1329;DHT22;658;48.820;9.354;2023-11-19T11:58:54;23.50;48.20
1329;DHT22;658;48.820;9.354;2023-11-19T12:03:02;23.70;47.70
1329;DHT22;658;48.820;9.354;2023-11-19T12:07:15;23.90;47.40
1329;DHT22;658;48.820;9.354;2023-11-19T12:11:16;23.90;47.20
1329;DHT22;658;48.820;9.354;2023-11-19T12:15:17;24.00;47.20
1329;DHT22;658;48.820;9.354;2023-11-19T12:19:20;24.10;47.20
1329;DHT22;658;48.820;9.354;2023-11-19T12:23:21;24.20;46.90
1329;DHT22;658;48.820;9.354;2023-11-19T12:27:22;24.20;46.80
1329;DHT22;658;48.820;9.354;2023-11-19T12:31:23;24.30;46.80
1329;DHT22;658;48.820;9.354;2023-11-19T12:35:23;24.30;46.80
1329;DHT22;658;48.820;9.354;2023-11-19T12:39:24;24.20;46.80
1329;DHT22;658;48.820;9.354;2023-11-19T12:43:25;24.30;46.80
1329;DHT22;658;48.820;9.354;2023-11-19T12:47:25;24.20;46.90
1329;DHT22;658;48.820;9.354;2023-11-19T12:51:32;24.30;47.00
1329;DHT22;658;48.820;9.354;2023-11-19T12:55:33;24.40;46.90
1329;DHT22;658;48.820;9.354;2023-11-19T12:59:34;24.40;46.90
1329;DHT22;658;48.820;9.354;2023-11-19T13:03:36;24.40;46.70
1329;DHT22;658;48.820;9.354;2023-11-19T13:07:39;24.50;46.50
1329;DHT22;658;48.820;9.354;2023-11-19T13:11:39;24.60;46.40
1329;DHT22;658;48.820;9.354;2023-11-19T13:15:43;24.70;46.30
1329;DHT22;658;48.820;9.354;2023-11-19T13:19:47;24.90;45.70
1329;DHT22;658;48.820;9.354;2023-11-19T13:23:48;25.10;45.30
1329;DHT22;658;48.820;9.354;2023-11-19T13:27:49;25.30;45.00
1329;DHT22;658;48.820;9.354;2023-11-19T13:31:52;25.40;44.70
1329;DHT22;658;48.820;9.354;2023-11-19T13:35:55;25.50;44.60
1329;DHT22;658;48.820;9.354;2023-11-19T13:39:55;25.50;44.40
1329;DHT22;658;48.820;9.354;2023-11-19T13:43:56;25.50;44.30
1329;DHT22;658;48.820;9.354;2023-11-19T13:47:56;25.50;44.50
1329;DHT22;658;48.820;9.354;2023-11-19T13:51:57;25.40;44.50
1329;DHT22;658;48.820;9.354;2023-11-19T13:55:58;25.40;44.60
1329;DHT22;658;48.820;9.354;2023-11-19T14:00:01;25.40;44.80
1329;DHT22;658;48.820;9.354;2023-11-19T14:04:03;25.40;44.60
1329;DHT22;658;48.820;9.354;2023-11-19T14:08:05;25.60;44.20
1329;DHT22;658;48.820;9.354;2023-11-19T14:12:14;26.00;43.60
1329;DHT22;658;48.820;9.354;2023-11-19T14:16:18;26.20;43.10
1329;DHT22;658;48.820;9.354;2023-11-19T14:20:18;26.40;42.70
1329;DHT22;658;48.820;9.354;2023-11-19T14:24:19;26.20;38.90
1329;DHT22;658;48.820;9.354;2023-11-19T14:28:20;25.80;38.00
1329;DHT22;658;48.820;9.354;2023-11-19T14:32:20;25.30;39.60
1329;DHT22;658;48.820;9.354;2023-11-19T14:36:21;25.20;40.80
1329;DHT22;658;48.820;9.354;2023-11-19T14:40:22;25.30;40.90
1329;DHT22;658;48.820;9.354;2023-11-19T14:44:22;25.30;40.80
1329;DHT22;658;48.820;9.354;2023-11-19T14:48:23;25.40;41.30
1329;DHT22;658;48.820;9.354;2023-11-19T14:52:26;25.40;41.40
1329;DHT22;658;48.820;9.354;2023-11-19T14:56:27;25.40;41.50
1329;DHT22;658;48.820;9.354;2023-11-19T15:00:30;25.40;41.60
1329;DHT22;658;48.820;9.354;2023-11-19T15:04:33;25.30;41.70
1329;DHT22;658;48.820;9.354;2023-11-19T15:08:34;25.30;42.00
1329;DHT22;658;48.820;9.354;2023-11-19T15:12:39;25.30;42.30
1329;DHT22;658;48.820;9.354;2023-11-19T15:16:41;25.20;42.50
1329;DHT22;658;48.820;9.354;2023-11-19T15:20:41;25.20;42.80
1329;DHT22;658;48.820;9.354;2023-11-19T15:24:42;25.00;42.90
1329;DHT22;658;48.820;9.354;2023-11-19T15:28:43;25.00;43.20
1329;DHT22;658;48.820;9.354;2023-11-19T15:32:43;24.90;43.80
1329;DHT22;658;48.820;9.354;2023-11-19T15:36:44;24.90;43.40
1329;DHT22;658;48.820;9.354;2023-11-19T15:40:47;24.80;43.50
1329;DHT22;658;48.820;9.354;2023-11-19T15:44:47;24.80;43.80
1329;DHT22;658;48.820;9.354;2023-11-19T15:48:48;24.60;42.90
1329;DHT22;658;48.820;9.354;2023-11-19T15:52:48;24.30;43.30
1329;DHT22;658;48.820;9.354;2023-11-19T15:56:51;24.10;44.60
1329;DHT22;658;48.820;9.354;2023-11-19T16:00:54;24.10;44.00
1329;DHT22;658;48.820;9.354;2023-11-19T16:04:57;24.20;44.00
1329;DHT22;658;48.820;9.354;2023-11-19T16:09:00;24.20;44.00
1329;DHT22;658;48.820;9.354;2023-11-19T16:13:05;24.20;44.10
1329;DHT22;658;48.820;9.354;2023-11-19T16:17:07;24.20;44.10
1329;DHT22;658;48.820;9.354;2023-11-19T16:21:10;24.30;44.20
1329;DHT22;658;48.820;9.354;2023-11-19T16:25:10;24.30;44.30
1329;DHT22;658;48.820;9.354;2023-11-19T16:29:12;24.30;44.50
1329;DHT22;658;48.820;9.354;2023-11-19T16:33:13;24.20;44.40
1329;DHT22;658;48.820;9.354;2023-11-19T16:37:15;24.30;44.50
1329;DHT22;658;48.820;9.354;2023-11-19T16:41:19;24.30;44.50
1329;DHT22;658;48.820;9.354;2023-11-19T16:45:23;24.20;44.50
1329;DHT22;658;48.820;9.354;2023-11-19T16:49:26;24.20;44.60
1329;DHT22;658;48.820;9.354;2023-11-19T16:53:29;24.20;44.70
1329;DHT22;658;48.820;9.354;2023-11-19T16:57:30;24.20;44.80
1329;DHT22;658;48.820;9.354;2023-11-19T17:01:31;24.20;44.70
1329;DHT22;658;48.820;9.354;2023-11-19T17:05:32;24.10;44.80
1329;DHT22;658;48.820;9.354;2023-11-19T17:09:36;24.20;44.80
1329;DHT22;658;48.820;9.354;2023-11-19T17:13:36;24.20;44.90
1329;DHT22;658;48.820;9.354;2023-11-19T17:17:37;24.10;44.90
1329;DHT22;658;48.820;9.354;2023-11-19T17:21:38;24.10;44.90
1329;DHT22;658;48.820;9.354;2023-11-19T17:25:38;24.10;45.00
1329;DHT22;658;48.820;9.354;2023-11-19T17:29:39;24.10;45.10
1329;DHT22;658;48.820;9.354;2023-11-19T17:33:43;24.10;45.00
1329;DHT22;658;48.820;9.354;2023-11-19T17:37:43;24.10;45.00
1329;DHT22;658;48.820;9.354;2023-11-19T17:41:44;24.10;45.10
1329;DHT22;658;48.820;9.354;2023-11-19T17:45:44;24.10;45.20
1329;DHT22;658;48.820;9.354;2023-11-19T17:49:45;24.00;45.20
1329;DHT22;658;48.820;9.354;2023-11-19T17:53:45;24.00;45.10
1329;DHT22;658;48.820;9.354;2023-11-19T17:57:46;24.00;45.20
1329;DHT22;658;48.820;9.354;2023-11-19T18:01:48;23.90;45.20
1329;DHT22;658;48.820;9.354;2023-11-19T18:05:48;23.90;45.20
1329;DHT22;658;48.820;9.354;2023-11-19T18:09:49;23.90;45.20
1329;DHT22;658;48.820;9.354;2023-11-19T18:13:49;23.80;45.30
1329;DHT22;658;48.820;9.354;2023-11-19T18:17:50;23.80;45.30
1329;DHT22;658;48.820;9.354;2023-11-19T18:21:51;23.80;45.50
1329;DHT22;658;48.820;9.354;2023-11-19T18:25:51;23.80;45.40
1329;DHT22;658;48.820;9.354;2023-11-19T18:29:53;23.80;45.50
1329;DHT22;658;48.820;9.354;2023-11-19T18:33:53;23.70;45.50
1329;DHT22;658;48.820;9.354;2023-11-19T18:37:54;23.70;45.50
1329;DHT22;658;48.820;9.354;2023-11-19T18:41:55;23.60;45.40
1329;DHT22;658;48.820;9.354;2023-11-19T18:46:00;23.70;45.50
1329;DHT22;658;48.820;9.354;2023-11-19T18:50:02;23.70;45.60
1329;DHT22;658;48.820;9.354;2023-11-19T18:54:03;23.70;45.60
1329;DHT22;658;48.820;9.354;2023-11-19T18:58:04;23.80;45.80
1329;DHT22;658;48.820;9.354;2023-11-19T19:02:05;23.80;45.70
1329;DHT22;658;48.820;9.354;2023-11-19T19:06:07;23.80;45.80
1329;DHT22;658;48.820;9.354;2023-11-19T19:10:08;23.80;45.70
1329;DHT22;658;48.820;9.354;2023-11-19T19:14:09;23.80;45.90
1329;DHT22;658;48.820;9.354;2023-11-19T19:18:10;23.80;45.80
1329;DHT22;658;48.820;9.354;2023-11-19T19:22:11;23.80;45.80
1329;DHT22;658;48.820;9.354;2023-11-19T19:26:12;23.80;45.90
1329;DHT22;658;48.820;9.354;2023-11-19T19:30:13;23.80;45.90
1329;DHT22;658;48.820;9.354;2023-11-19T19:34:14;23.80;46.00
1329;DHT22;658;48.820;9.354;2023-11-19T19:38:15;23.80;45.90
1329;DHT22;658;48.820;9.354;2023-11-19T19:42:16;23.80;46.00
1329;DHT22;658;48.820;9.354;2023-11-19T19:46:17;23.80;46.10
1329;DHT22;658;48.820;9.354;2023-11-19T19:50:17;23.80;46.10
1329;DHT22;658;48.820;9.354;2023-11-19T19:54:19;23.80;46.10
1329;DHT22;658;48.820;9.354;2023-11-19T19:58:19;23.80;46.10
1329;DHT22;658;48.820;9.354;2023-11-19T20:02:20;23.80;46.20
1329;DHT22;658;48.820;9.354;2023-11-19T20:06:23;23.80;46.20
1329;DHT22;658;48.820;9.354;2023-11-19T20:10:25;23.80;46.20
1329;DHT22;658;48.820;9.354;2023-11-19T20:14:26;23.80;46.20
1329;DHT22;658;48.820;9.354;2023-11-19T20:18:28;23.80;46.30
1329;DHT22;658;48.820;9.354;2023-11-19T20:22:31;23.80;46.30
1329;DHT22;658;48.820;9.354;2023-11-19T20:26:31;23.80;46.30
1329;DHT22;658;48.820;9.354;2023-11-19T20:30:32;23.80;46.30
1329;DHT22;658;48.820;9.354;2023-11-19T20:34:34;23.80;46.40
1329;DHT22;658;48.820;9.354;2023-11-19T20:38:39;23.80;46.40
1329;DHT22;658;48.820;9.354;2023-11-19T20:42:40;23.80;46.40
1329;DHT22;658;48.820;9.354;2023-11-19T20:46:40;23.80;46.40
1329;DHT22;658;48.820;9.354;2023-11-19T20:50:42;23.80;46.50
1329;DHT22;658;48.820;9.354;2023-11-19T20:54:42;23.80;46.50
1329;DHT22;658;48.820;9.354;2023-11-19T20:58:43;23.80;46.40
1329;DHT22;658;48.820;9.354;2023-11-19T21:02:44;23.80;46.50
1329;DHT22;658;48.820;9.354;2023-11-19T21:06:44;23.80;46.40
1329;DHT22;658;48.820;9.354;2023-11-19T21:10:45;23.80;46.30
1329;DHT22;658;48.820;9.354;2023-11-19T21:14:46;23.80;46.30
1329;DHT22;658;48.820;9.354;2023-11-19T21:18:47;23.80;46.30
1329;DHT22;658;48.820;9.354;2023-11-19T21:22:48;23.80;46.40
1329;DHT22;658;48.820;9.354;2023-11-19T21:26:48;23.80;46.40
1329;DHT22;658;48.820;9.354;2023-11-19T21:30:49;23.80;46.40
1329;DHT22;658;48.820;9.354;2023-11-19T21:34:50;23.80;46.30
1329;DHT22;658;48.820;9.354;2023-11-19T21:38:51;23.80;46.30
1329;DHT22;658;48.820;9.354;2023-11-19T21:42:51;23.80;46.40
1329;DHT22;658;48.820;9.354;2023-11-19T21:46:52;23.70;46.40
1329;DHT22;658;48.820;9.354;2023-11-19T21:50:53;23.70;46.30
1329;DHT22;658;48.820;9.354;2023-11-19T21:54:56;23.70;46.30
1329;DHT22;658;48.820;9.354;2023-11-19T21:58:57;23.70;46.30
1329;DHT22;658;48.820;9.354;2023-11-19T22:02:57;23.70;46.30
1329;DHT22;658;48.820;9.354;2023-11-19T22:06:58;23.70;46.30
1329;DHT22;658;48.820;9.354;2023-11-19T22:11:00;23.70;46.30
1329;DHT22;658;48.820;9.354;2023-11-19T22:15:01;23.60;46.30
1329;DHT22;658;48.820;9.354;2023-11-19T22:19:02;23.60;46.30
1329;DHT22;658;48.820;9.354;2023-11-19T22:23:03;23.60;46.30
1329;DHT22;658;48.820;9.354;2023-11-19T22:27:04;23.60;46.30
1329;DHT22;658;48.820;9.354;2023-11-19T22:31:11;23.50;46.20
1329;DHT22;658;48.820;9.354;2023-11-19T22:35:12;23.50;46.30
1329;DHT22;658;48.820;9.354;2023-11-19T22:39:16;23.40;46.20
1329;DHT22;658;48.820;9.354;2023-11-19T22:43:16;23.40;46.30
1329;DHT22;658;48.820;9.354;2023-11-19T22:47:17;23.30;46.30
1329;DHT22;658;48.820;9.354;2023-11-19T22:51:18;23.30;46.30
1329;DHT22;658;48.820;9.354;2023-11-19T22:55:18;23.30;46.30
1329;DHT22;658;48.820;9.354;2023-11-19T22:59:19;23.30;46.20
1329;DHT22;658;48.820;9.354;2023-11-19T23:03:20;23.20;46.20
1329;DHT22;658;48.820;9.354;2023-11-19T23:07:21;23.20;46.20
1329;DHT22;658;48.820;9.354;2023-11-19T23:11:22;23.20;46.20
1329;DHT22;658;48.820;9.354;2023-11-19T23:15:23;23.20;46.20
1329;DHT22;658;48.820;9.354;2023-11-19T23:19:25;23.20;46.20
1329;DHT22;658;48.820;9.354;2023-11-19T23:23:26;23.20;46.20
1329;DHT22;658;48.820;9.354;2023-11-19T23:27:26;23.10;46.10
1329;DHT22;658;48.820;9.354;2023-11-19T23:31:27;23.10;46.20
1329;DHT22;658;48.820;9.354;2023-11-19T23:35:28;23.10;46.20
1329;DHT22;658;48.820;9.354;2023-11-19T23:39:29;23.00;46.20
1329;DHT22;658;48.820;9.354;2023-11-19T23:43:32;23.00;46.20
1329;DHT22;658;48.820;9.354;2023-11-19T23:47:32;22.90;46.10
1329;DHT22;658;48.820;9.354;2023-11-19T23:51:37;22.90;46.10
1329;DHT22;658;48.820;9.354;2023-11-19T23:55:38;22.90;46.10
1329;DHT22;658;48.820;9.354;2023-11-19T23:59:40;22.90;46.10
